Time;durP1;ratioP1;P1;durP2;ratioP2;P2;SDS_P1;SDS_P2;PMS_P1;PMS_P2;Temp;Humidity;BMP_temperature;BMP_pressure;BME280_temperature;BME280_humidity;BME280_pressure;Samples;Min_cycle;Max_cycle;Signal;HPM_P1;HPM_P2
2022/10/31 00:01:13;;;;;;;18.83;8.63;;;14.70;99.90;;;;;;5053986;28;20708;-61
2022/10/31 00:03:40;;;;;;;18.27;8.37;;;14.80;99.90;;;;;;5053962;28;20272;-61
2022/10/31 00:06:07;;;;;;;18.30;8.83;;;14.80;99.90;;;;;;5053416;28;20295;-60
2022/10/31 00:08:33;;;;;;;19.27;8.17;;;14.80;99.90;;;;;;5052591;28;20205;-61
2022/10/31 00:11:00;;;;;;;17.97;8.43;;;14.80;99.90;;;;;;5053451;28;20730;-61
2022/10/31 00:13:27;;;;;;;15.63;7.97;;;14.80;99.90;;;;;;5053625;28;20220;-61
2022/10/31 00:15:53;;;;;;;14.30;7.97;;;14.90;99.90;;;;;;5053563;28;20611;-61
2022/10/31 00:18:21;;;;;;;20.70;8.00;;;14.90;99.90;;;;;;5053825;28;20209;-62
2022/10/31 00:20:48;;;;;;;14.30;8.27;;;14.90;99.90;;;;;;5053240;28;20720;-62
2022/10/31 00:23:15;;;;;;;15.70;8.60;;;14.90;99.90;;;;;;5053817;28;20210;-61
2022/10/31 00:25:41;;;;;;;13.67;8.50;;;14.90;99.90;;;;;;5053143;28;20267;-61
2022/10/31 00:28:11;;;;;;;18.53;8.30;;;14.90;99.90;;;;;;5053066;28;20240;-61
2022/10/31 00:30:38;;;;;;;14.10;8.10;;;14.90;99.90;;;;;;5053194;28;20678;-59
2022/10/31 00:33:05;;;;;;;16.40;8.17;;;14.90;99.90;;;;;;5053268;28;20209;-61
2022/10/31 00:35:33;;;;;;;19.90;7.90;;;14.90;99.90;;;;;;5053043;28;20710;-61
2022/10/31 00:38:00;;;;;;;16.70;7.90;;;14.90;99.90;;;;;;5052871;28;20209;-61
2022/10/31 00:40:27;;;;;;;15.73;7.33;;;15.00;99.90;;;;;;5052904;28;20210;-58
2022/10/31 00:42:54;;;;;;;14.67;8.00;;;14.90;99.90;;;;;;5053356;28;20275;-61
2022/10/31 00:45:20;;;;;;;17.17;7.80;;;14.90;99.90;;;;;;5053163;28;20299;-61
2022/10/31 00:47:47;;;;;;;18.40;8.40;;;14.90;99.90;;;;;;5052741;28;20209;-59
2022/10/31 00:50:13;;;;;;;14.33;6.73;;;14.90;99.90;;;;;;5052758;28;20236;-61
2022/10/31 00:52:41;;;;;;;16.17;7.70;;;14.90;99.90;;;;;;5052845;28;20205;-60
2022/10/31 00:55:08;;;;;;;17.77;7.87;;;14.90;99.90;;;;;;5052770;28;20668;-59
2022/10/31 00:57:35;;;;;;;15.37;8.03;;;14.90;99.90;;;;;;5052894;28;20208;-56
2022/10/31 01:00:01;;;;;;;15.43;7.37;;;14.90;99.90;;;;;;5052633;28;20209;-56
2022/10/31 01:02:28;;;;;;;16.07;8.07;;;14.90;99.90;;;;;;5052570;28;20279;-59
2022/10/31 01:04:54;;;;;;;19.20;8.53;;;14.90;99.90;;;;;;5052207;28;20673;-59
2022/10/31 01:07:21;;;;;;;13.07;8.10;;;14.90;99.90;;;;;;5052362;28;20210;-59
2022/10/31 01:09:49;;;;;;;16.77;8.80;;;14.90;99.90;;;;;;5052791;28;20213;-59
2022/10/31 01:12:16;;;;;;;16.07;8.43;;;14.90;99.90;;;;;;5052651;28;20233;-60
2022/10/31 01:14:44;;;;;;;19.30;9.23;;;14.90;99.90;;;;;;5052420;28;20268;-60
2022/10/31 01:17:11;;;;;;;13.93;8.10;;;14.90;99.90;;;;;;5052074;28;20296;-60
2022/10/31 01:19:37;;;;;;;17.17;8.40;;;14.80;99.90;;;;;;5052080;28;20263;-59
2022/10/31 01:22:04;;;;;;;21.03;8.47;;;14.70;99.90;;;;;;5052386;28;20770;-57
2022/10/31 01:24:31;;;;;;;17.80;8.47;;;14.70;99.90;;;;;;5052456;28;20206;-58
2022/10/31 01:26:59;;;;;;;21.80;8.27;;;14.70;99.90;;;;;;5052047;28;20244;-56
2022/10/31 01:29:25;;;;;;;12.93;7.20;;;14.70;99.90;;;;;;5051986;28;20271;-58
2022/10/31 01:31:52;;;;;;;14.30;6.93;;;14.70;99.90;;;;;;5051665;28;20233;-60
2022/10/31 01:34:19;;;;;;;15.53;7.90;;;14.70;99.90;;;;;;5051793;28;20213;-60
2022/10/31 01:36:50;;;;;;;17.37;8.43;;;14.70;99.90;;;;;;5051762;28;20186;-59
2022/10/31 01:39:18;;;;;;;16.00;8.73;;;14.60;99.90;;;;;;5052299;28;20210;-61
2022/10/31 01:41:47;;;;;;;13.93;8.17;;;14.70;99.90;;;;;;5051883;28;20777;-61
2022/10/31 01:44:51;;;;;;;15.10;7.60;;;14.60;99.90;;;;;;5051663;28;20271;-61
2022/10/31 01:47:26;;;;;;;15.97;7.37;;;14.60;99.90;;;;;;5051872;28;20235;-60
2022/10/31 01:49:57;;;;;;;18.07;9.33;;;14.60;99.90;;;;;;5051966;28;20258;-61
2022/10/31 01:52:27;;;;;;;15.73;9.23;;;14.50;99.90;;;;;;5052043;28;20260;-61
2022/10/31 01:54:59;;;;;;;21.43;9.10;;;14.50;99.90;;;;;;5051619;28;20209;-61
2022/10/31 01:57:27;;;;;;;13.43;8.70;;;14.60;99.90;;;;;;5051296;28;20255;-62
2022/10/31 01:59:58;;;;;;;18.00;8.10;;;14.50;99.90;;;;;;5051906;28;20259;-61
2022/10/31 02:02:28;;;;;;;14.80;7.90;;;14.40;99.90;;;;;;5051815;28;20233;-59
2022/10/31 02:04:55;;;;;;;16.60;8.77;;;14.30;99.90;;;;;;5051625;28;20672;-61
2022/10/31 02:07:26;;;;;;;18.47;8.73;;;14.30;99.90;;;;;;5051467;28;20712;-60
2022/10/31 02:09:54;;;;;;;17.20;8.77;;;14.40;99.90;;;;;;5051565;28;20213;-59
2022/10/31 02:12:21;;;;;;;16.77;8.60;;;14.40;99.90;;;;;;5050558;28;20716;-57
2022/10/31 02:14:48;;;;;;;15.47;8.37;;;14.40;99.90;;;;;;5051878;28;20202;-60
2022/10/31 02:17:15;;;;;;;19.50;8.90;;;14.40;99.90;;;;;;5051393;28;20206;-60
2022/10/31 02:19:52;;;;;;;14.27;8.37;;;14.40;99.90;;;;;;5051599;28;20205;-58
2022/10/31 02:22:25;;;;;;;14.57;8.20;;;14.40;99.90;;;;;;5051173;28;20708;-57
2022/10/31 02:25:03;;;;;;;15.37;7.83;;;14.40;99.90;;;;;;5051692;28;20206;-58
2022/10/31 02:27:58;;;;;;;13.43;7.53;;;14.40;99.90;;;;;;5051360;28;20316;-57
2022/10/31 02:30:25;;;;;;;16.30;7.63;;;14.30;99.90;;;;;;5052071;28;20371;-55
2022/10/31 02:33:11;;;;;;;15.53;7.17;;;14.30;99.90;;;;;;5055523;28;20213;-57
2022/10/31 02:35:49;;;;;;;14.80;8.03;;;14.20;99.90;;;;;;5055399;28;20247;-54
2022/10/31 02:38:30;;;;;;;15.67;8.20;;;14.20;99.90;;;;;;5055462;28;20213;-57
2022/10/31 02:41:03;;;;;;;19.50;8.10;;;14.10;99.90;;;;;;5055027;28;20225;-57
2022/10/31 02:43:37;;;;;;;16.63;8.17;;;14.00;99.90;;;;;;5055617;28;20206;-57
2022/10/31 02:46:10;;;;;;;16.83;7.90;;;14.00;99.90;;;;;;5055106;28;20221;-57
2022/10/31 02:48:41;;;;;;;16.87;7.57;;;13.90;99.90;;;;;;5055287;28;20657;-55
2022/10/31 02:51:10;;;;;;;14.43;7.97;;;13.80;99.90;;;;;;5055129;28;20258;-56
2022/10/31 02:53:38;;;;;;;21.13;8.37;;;13.80;99.90;;;;;;5055154;28;20218;-58
2022/10/31 02:56:09;;;;;;;19.23;9.33;;;13.80;99.90;;;;;;5055048;28;20259;-58
2022/10/31 02:58:40;;;;;;;15.30;8.70;;;13.80;99.90;;;;;;5055172;28;20252;-57
2022/10/31 03:01:25;;;;;;;16.13;8.53;;;13.80;99.90;;;;;;5055020;28;20267;-57
2022/10/31 03:04:27;;;;;;;17.10;8.50;;;13.80;99.90;;;;;;5055042;28;20621;-58
2022/10/31 03:07:01;;;;;;;17.17;8.60;;;13.80;99.90;;;;;;5054776;28;20278;-55
2022/10/31 03:09:34;;;;;;;17.03;9.63;;;13.80;99.90;;;;;;5055203;28;20201;-57
2022/10/31 03:12:07;;;;;;;20.40;9.13;;;13.80;99.90;;;;;;5054957;28;20720;-59
2022/10/31 03:14:41;;;;;;;19.10;10.03;;;13.80;99.90;;;;;;5054811;28;20218;-53
2022/10/31 03:17:14;;;;;;;19.00;9.90;;;13.80;99.90;;;;;;5054721;28;20205;-56
2022/10/31 03:19:46;;;;;;;21.90;10.30;;;13.80;99.90;;;;;;5054845;28;20205;-55
2022/10/31 03:22:17;;;;;;;21.70;11.03;;;13.80;99.90;;;;;;5054469;28;20238;-50
2022/10/31 03:24:46;;;;;;;23.73;10.93;;;13.80;99.90;;;;;;5054641;28;20210;-58
2022/10/31 03:27:17;;;;;;;22.83;10.70;;;13.80;99.90;;;;;;5054473;28;20234;-53
2022/10/31 03:29:45;;;;;;;19.30;10.17;;;13.80;99.90;;;;;;5054238;28;20221;-56
2022/10/31 03:32:17;;;;;;;19.87;10.30;;;13.80;99.90;;;;;;5054480;28;20283;-53
2022/10/31 03:34:46;;;;;;;20.13;10.60;;;13.90;99.90;;;;;;5054443;28;20210;-55
2022/10/31 03:37:18;;;;;;;22.93;10.93;;;13.90;99.90;;;;;;5054097;28;20259;-58
2022/10/31 03:39:47;;;;;;;22.10;10.70;;;13.90;99.90;;;;;;5054529;28;20264;-57
2022/10/31 03:42:18;;;;;;;21.00;11.23;;;13.90;99.90;;;;;;5053912;28;20275;-57
2022/10/31 03:44:51;;;;;;;20.73;10.33;;;13.90;99.90;;;;;;5054399;28;20271;-53
2022/10/31 03:47:18;;;;;;;26.13;10.90;;;13.90;99.90;;;;;;5053914;28;20230;-58
2022/10/31 03:49:46;;;;;;;17.93;10.37;;;13.90;99.90;;;;;;5054061;28;20214;-58
2022/10/31 03:52:20;;;;;;;24.57;10.10;;;14.00;99.90;;;;;;5054129;28;20256;-57
2022/10/31 03:54:50;;;;;;;23.43;11.50;;;14.00;99.90;;;;;;5054271;28;20210;-58
2022/10/31 03:57:24;;;;;;;21.33;10.90;;;13.90;99.90;;;;;;5053867;28;20227;-54
2022/10/31 03:59:55;;;;;;;21.50;10.23;;;13.90;99.90;;;;;;5053979;28;20209;-59
2022/10/31 04:02:28;;;;;;;23.83;10.57;;;13.80;99.90;;;;;;5053712;28;20225;-60
2022/10/31 04:04:58;;;;;;;27.07;11.30;;;13.80;99.90;;;;;;5053734;28;20248;-57
2022/10/31 04:07:29;;;;;;;19.53;10.13;;;13.70;99.90;;;;;;5053571;28;20287;-59
2022/10/31 04:09:57;;;;;;;20.10;10.00;;;13.60;99.90;;;;;;5053895;28;20205;-56
2022/10/31 04:12:25;;;;;;;21.43;10.83;;;13.50;99.90;;;;;;5053643;28;20225;-58
2022/10/31 04:14:53;;;;;;;21.90;10.27;;;13.50;99.90;;;;;;5053604;28;20236;-56
2022/10/31 04:17:23;;;;;;;22.40;10.83;;;13.40;99.90;;;;;;5053060;28;20259;-58
2022/10/31 04:19:50;;;;;;;24.50;11.30;;;13.40;99.90;;;;;;5053734;28;20205;-57
2022/10/31 04:22:18;;;;;;;23.70;11.23;;;13.30;99.90;;;;;;5053533;28;20581;-60
2022/10/31 04:24:45;;;;;;;23.63;10.60;;;13.20;99.90;;;;;;5053668;28;20206;-59
2022/10/31 04:27:12;;;;;;;20.77;11.23;;;13.20;99.90;;;;;;5053034;28;20646;-58
2022/10/31 04:29:38;;;;;;;21.60;11.73;;;13.20;99.90;;;;;;5053209;28;20721;-57
2022/10/31 04:32:05;;;;;;;24.13;12.10;;;13.20;99.90;;;;;;5053418;28;20225;-58
2022/10/31 04:34:32;;;;;;;25.90;12.70;;;13.10;99.90;;;;;;5052955;28;20217;-60
2022/10/31 04:36:58;;;;;;;26.47;13.27;;;13.10;99.90;;;;;;5053000;28;20247;-60
2022/10/31 04:39:26;;;;;;;31.90;13.17;;;13.10;99.90;;;;;;5053294;28;20359;-60
2022/10/31 04:41:53;;;;;;;22.23;12.57;;;13.00;99.90;;;;;;5052940;28;20221;-58
2022/10/31 04:44:20;;;;;;;25.37;12.77;;;13.10;99.90;;;;;;5053214;28;20283;-56
2022/10/31 04:46:46;;;;;;;24.80;13.33;;;13.00;99.90;;;;;;5052811;28;20712;-58
2022/10/31 04:49:13;;;;;;;27.13;13.40;;;13.00;99.90;;;;;;5053111;28;20205;-58
2022/10/31 04:51:40;;;;;;;27.30;14.50;;;13.00;99.90;;;;;;5052813;28;20656;-59
2022/10/31 04:54:07;;;;;;;27.07;13.83;;;13.00;99.90;;;;;;5052248;28;20247;-57
2022/10/31 04:56:35;;;;;;;32.80;15.07;;;12.90;99.90;;;;;;5052623;28;20210;-59
2022/10/31 04:59:01;;;;;;;23.80;14.53;;;12.90;99.90;;;;;;5052735;28;20213;-59
2022/10/31 05:01:29;;;;;;;31.70;14.57;;;13.00;99.90;;;;;;5052963;28;20229;-59
2022/10/31 05:03:55;;;;;;;26.77;13.80;;;12.90;99.90;;;;;;5052754;28;20204;-59
2022/10/31 05:06:22;;;;;;;28.53;14.93;;;12.90;99.90;;;;;;5052458;28;20290;-61
2022/10/31 05:08:48;;;;;;;30.37;14.77;;;12.90;99.90;;;;;;5052517;28;20209;-57
2022/10/31 05:11:15;;;;;;;32.97;14.30;;;12.90;99.90;;;;;;5052415;28;20237;-59
2022/10/31 05:13:43;;;;;;;34.23;14.40;;;12.90;99.90;;;;;;5052343;28;20205;-59
2022/10/31 05:16:10;;;;;;;29.20;14.87;;;12.90;99.90;;;;;;5052331;28;20260;-60
2022/10/31 05:18:37;;;;;;;31.43;14.53;;;12.90;99.90;;;;;;5052436;28;20263;-60
2022/10/31 05:21:04;;;;;;;32.47;14.70;;;12.90;99.90;;;;;;5052314;28;20229;-60
2022/10/31 05:23:30;;;;;;;31.43;15.23;;;12.90;99.90;;;;;;5052230;28;20205;-61
2022/10/31 05:25:57;;;;;;;34.50;15.57;;;12.80;99.90;;;;;;5052225;28;20271;-59
2022/10/31 05:28:23;;;;;;;35.03;14.97;;;12.80;99.90;;;;;;5052090;28;20279;-58
2022/10/31 05:30:51;;;;;;;28.70;14.57;;;12.80;99.90;;;;;;5052377;28;20286;-60
2022/10/31 05:33:18;;;;;;;31.13;14.83;;;12.60;99.90;;;;;;5051604;28;20209;-59
2022/10/31 05:35:45;;;;;;;27.17;15.03;;;12.40;99.90;;;;;;5051697;28;20216;-58
2022/10/31 05:38:11;;;;;;;29.20;14.80;;;12.40;99.90;;;;;;5051497;28;20198;-58
2022/10/31 05:40:38;;;;;;;30.73;14.43;;;12.40;99.90;;;;;;5052388;28;20237;-58
2022/10/31 05:43:04;;;;;;;32.73;15.43;;;12.40;99.90;;;;;;5052125;28;20218;-60
2022/10/31 05:45:31;;;;;;;33.67;16.93;;;12.40;99.90;;;;;;5050307;28;20682;-60
2022/10/31 05:48:00;;;;;;;35.30;16.97;;;12.50;99.90;;;;;;5050774;28;20221;-60
2022/10/31 05:50:28;;;;;;;38.57;17.13;;;12.50;99.90;;;;;;5051887;28;20672;-59
2022/10/31 05:52:56;;;;;;;36.43;17.60;;;12.50;99.90;;;;;;5051799;28;20263;-59
2022/10/31 05:55:24;;;;;;;28.80;16.67;;;12.60;99.90;;;;;;5051179;28;20213;-57
2022/10/31 05:57:51;;;;;;;37.70;18.47;;;12.60;99.90;;;;;;5051814;28;20198;-55
2022/10/31 06:00:18;;;;;;;39.20;17.07;;;12.60;99.90;;;;;;5051384;28;20208;-52
2022/10/31 06:02:45;;;;;;;41.43;18.77;;;12.60;99.90;;;;;;5051879;28;20278;-57
2022/10/31 06:05:13;;;;;;;32.03;17.00;;;12.60;99.90;;;;;;5051211;28;20247;-57
2022/10/31 06:07:40;;;;;;;33.33;17.40;;;12.60;99.90;;;;;;5051646;28;20232;-57
2022/10/31 06:10:08;;;;;;;34.83;17.20;;;12.60;99.90;;;;;;5051093;28;20263;-54
2022/10/31 06:12:37;;;;;;;37.27;18.10;;;12.60;99.90;;;;;;5051760;28;20287;-56
2022/10/31 06:15:05;;;;;;;36.03;17.03;;;12.60;99.90;;;;;;5051386;28;20231;-58
2022/10/31 06:17:32;;;;;;;34.63;17.73;;;12.60;99.90;;;;;;5051142;28;20292;-62
2022/10/31 06:19:58;;;;;;;31.00;16.97;;;12.60;99.90;;;;;;5048510;28;20292;-55
2022/10/31 06:22:26;;;;;;;36.53;16.90;;;12.60;99.90;;;;;;5051188;28;20233;-55
2022/10/31 06:24:53;;;;;;;34.93;17.37;;;12.60;99.90;;;;;;5051354;28;20414;-54
2022/10/31 06:27:20;;;;;;;31.77;16.97;;;12.60;99.90;;;;;;5050678;28;20283;-58
2022/10/31 06:29:46;;;;;;;35.00;17.43;;;12.60;99.90;;;;;;5050442;28;20212;-56
2022/10/31 06:32:14;;;;;;;32.83;17.67;;;12.60;99.90;;;;;;5050692;28;20232;-57
2022/10/31 06:34:41;;;;;;;32.93;17.63;;;12.70;99.90;;;;;;5050915;28;20213;-60
2022/10/31 06:37:08;;;;;;;34.37;17.37;;;12.70;99.90;;;;;;5050722;28;20266;-62
2022/10/31 06:39:36;;;;;;;31.93;17.17;;;12.70;99.90;;;;;;5051429;28;20210;-61
2022/10/31 06:42:04;;;;;;;36.07;17.47;;;12.70;99.90;;;;;;5050734;28;20298;-61
2022/10/31 06:44:30;;;;;;;37.77;18.40;;;12.70;99.90;;;;;;5051239;28;20209;-63
2022/10/31 06:46:57;;;;;;;38.67;18.73;;;12.70;99.90;;;;;;5050359;28;20240;-63
2022/10/31 06:49:24;;;;;;;35.60;18.10;;;12.70;99.90;;;;;;5051204;28;20209;-63
2022/10/31 06:51:51;;;;;;;39.97;18.77;;;12.70;99.90;;;;;;5050789;28;20259;-65
2022/10/31 06:54:18;;;;;;;39.30;17.73;;;12.80;99.90;;;;;;5050701;28;20232;-65
2022/10/31 06:56:48;;;;;;;35.73;18.80;;;13.00;99.90;;;;;;5050950;28;20204;-70
2022/10/31 06:59:15;;;;;;;33.33;18.23;;;13.20;99.90;;;;;;5050407;28;20267;-69
2022/10/31 07:01:42;;;;;;;32.47;16.13;;;13.30;99.90;;;;;;5050756;28;20225;-65
2022/10/31 07:04:09;;;;;;;31.40;16.13;;;13.40;99.90;;;;;;5050719;28;20643;-70
2022/10/31 07:06:36;;;;;;;30.47;14.97;;;13.60;99.90;;;;;;5050726;28;20698;-66
2022/10/31 07:09:02;;;;;;;30.43;16.00;;;13.70;99.90;;;;;;5050643;28;20206;-66
2022/10/31 07:11:29;;;;;;;24.60;14.43;;;13.80;99.90;;;;;;5050794;28;20279;-66
2022/10/31 07:13:57;;;;;;;25.13;14.00;;;13.90;99.90;;;;;;5050357;28;20213;-66
2022/10/31 07:16:24;;;;;;;29.80;15.47;;;13.90;99.90;;;;;;5051505;28;20271;-66
2022/10/31 07:18:50;;;;;;;33.10;15.17;;;13.90;99.90;;;;;;5054139;28;20205;-62
2022/10/31 07:21:17;;;;;;;31.13;15.10;;;13.90;99.90;;;;;;5044197;28;20247;-60
2022/10/31 07:23:44;;;;;;;28.70;15.53;;;13.90;99.90;;;;;;5053917;28;20209;-61
2022/10/31 07:26:11;;;;;;;28.63;14.70;;;13.80;99.90;;;;;;5053527;28;20205;-61
2022/10/31 07:28:37;;;;;;;28.70;15.07;;;13.70;99.90;;;;;;5053502;28;20275;-61
2022/10/31 07:31:05;;;;;;;31.90;15.13;;;13.60;99.90;;;;;;5053343;28;20287;-64
2022/10/31 07:33:32;;;;;;;25.60;15.33;;;13.60;99.90;;;;;;5053653;28;20267;-63
2022/10/31 07:35:59;;;;;;;23.80;14.53;;;13.50;99.90;;;;;;5053082;28;20201;-62
2022/10/31 07:38:25;;;;;;;28.00;15.67;;;13.50;99.90;;;;;;5053725;28;20205;-65
2022/10/31 07:40:53;;;;;;;28.20;14.90;;;13.50;99.90;;;;;;5053411;28;20581;-61
2022/10/31 07:43:20;;;;;;;28.37;14.13;;;13.40;99.90;;;;;;5052972;28;20301;-62
2022/10/31 07:45:50;;;;;;;29.63;15.20;;;13.30;99.90;;;;;;5053659;28;20617;-62
2022/10/31 07:48:18;;;;;;;33.10;16.13;;;13.20;99.90;;;;;;5051603;28;20668;-60
2022/10/31 07:50:45;;;;;;;27.70;15.97;;;13.30;99.90;;;;;;5053033;28;20290;-65
2022/10/31 07:53:13;;;;;;;29.67;15.53;;;13.30;99.90;;;;;;5053181;28;20205;-62
2022/10/31 07:55:40;;;;;;;25.60;14.33;;;13.30;99.90;;;;;;5053510;28;20205;-62
2022/10/31 07:58:08;;;;;;;27.73;14.73;;;13.30;99.90;;;;;;5053162;28;20639;-63
2022/10/31 08:00:36;;;;;;;27.50;14.47;;;13.30;99.90;;;;;;5053233;28;20232;-57
2022/10/31 08:03:06;;;;;;;28.03;14.83;;;13.30;99.90;;;;;;5053458;28;20260;-58
2022/10/31 08:05:35;;;;;;;34.53;16.13;;;13.40;99.90;;;;;;5052822;28;20623;-57
2022/10/31 08:08:02;;;;;;;35.73;15.53;;;13.40;99.90;;;;;;5052475;28;20230;-55
2022/10/31 08:10:29;;;;;;;30.40;13.97;;;13.50;99.90;;;;;;5052277;28;20263;-58
2022/10/31 08:12:57;;;;;;;31.87;14.93;;;13.50;99.90;;;;;;5053137;28;20209;-59
2022/10/31 08:15:24;;;;;;;24.93;14.67;;;13.50;99.90;;;;;;5052471;28;20305;-63
2022/10/31 08:17:50;;;;;;;30.83;15.30;;;13.60;99.90;;;;;;5052867;28;20217;-63
2022/10/31 08:20:17;;;;;;;29.13;14.83;;;13.60;99.90;;;;;;5051971;28;20210;-62
2022/10/31 08:22:53;;;;;;;25.90;14.27;;;13.70;99.90;;;;;;5052913;28;20639;-62
2022/10/31 08:25:20;;;;;;;20.93;13.63;;;13.70;99.90;;;;;;5052794;28;20239;-62
2022/10/31 08:27:49;;;;;;;26.77;14.50;;;13.80;99.90;;;;;;5051198;28;20221;-61
2022/10/31 08:30:16;;;;;;;31.23;13.70;;;13.80;99.90;;;;;;5052342;28;20221;-61
2022/10/31 08:32:43;;;;;;;27.37;14.47;;;13.90;99.90;;;;;;5052516;28;20209;-61
2022/10/31 08:35:10;;;;;;;28.70;13.83;;;13.90;99.90;;;;;;5052744;28;20236;-61
2022/10/31 08:37:36;;;;;;;29.97;14.07;;;14.00;99.90;;;;;;5051875;28;20581;-62
2022/10/31 08:40:07;;;;;;;33.10;14.57;;;14.10;99.90;;;;;;5052355;28;20209;-63
2022/10/31 08:42:33;;;;;;;31.87;15.17;;;14.10;99.90;;;;;;5052220;28;20316;-63
2022/10/31 08:45:00;;;;;;;36.07;16.67;;;14.20;99.90;;;;;;5052485;28;20209;-64
2022/10/31 08:47:27;;;;;;;34.47;16.97;;;14.10;99.90;;;;;;5052058;28;20213;-63
2022/10/31 08:49:54;;;;;;;32.57;16.03;;;14.30;99.90;;;;;;5051559;28;20301;-62
2022/10/31 08:52:23;;;;;;;29.27;15.23;;;14.40;99.90;;;;;;5052344;28;20229;-63
2022/10/31 08:54:50;;;;;;;24.37;14.20;;;14.60;99.90;;;;;;5052073;28;20210;-62
2022/10/31 08:57:18;;;;;;;27.70;15.13;;;14.60;99.90;;;;;;5052330;28;20629;-62
2022/10/31 08:59:45;;;;;;;29.57;13.60;;;14.80;99.90;;;;;;5051420;28;20213;-64
2022/10/31 09:02:11;;;;;;;27.30;13.53;;;14.80;99.90;;;;;;5036027;28;20275;-65
2022/10/31 09:04:38;;;;;;;29.27;13.60;;;14.90;99.90;;;;;;5051414;28;20210;-59
2022/10/31 09:07:05;;;;;;;27.67;13.87;;;15.10;99.90;;;;;;5052127;28;20260;-67
2022/10/31 09:09:31;;;;;;;44.27;24.27;;;15.10;99.90;;;;;;5052169;28;20732;-67
2022/10/31 09:11:58;;;;;;;28.87;16.07;;;15.20;99.90;;;;;;5051367;28;20228;-66
2022/10/31 09:14:26;;;;;;;31.10;14.93;;;15.20;99.90;;;;;;5052002;28;20251;-64
2022/10/31 09:16:53;;;;;;;34.10;16.27;;;15.30;99.90;;;;;;5051152;28;20205;-63
2022/10/31 09:19:19;;;;;;;32.67;15.97;;;15.40;99.90;;;;;;5052231;28;20277;-63
2022/10/31 09:21:46;;;;;;;34.60;16.93;;;15.40;99.90;;;;;;5051081;28;20233;-62
2022/10/31 09:24:13;;;;;;;33.60;15.80;;;15.40;99.90;;;;;;5052073;28;20206;-63
2022/10/31 09:26:39;;;;;;;38.93;15.63;;;15.40;99.90;;;;;;5051576;28;20205;-67
2022/10/31 09:29:09;;;;;;;43.57;17.23;;;15.50;99.90;;;;;;5051370;28;20226;-66
2022/10/31 09:31:37;;;;;;;34.70;15.80;;;15.60;99.90;;;;;;5051082;28;20272;-66
2022/10/31 09:34:04;;;;;;;32.60;14.17;;;15.70;99.90;;;;;;5051237;28;20912;-66
2022/10/31 09:36:30;;;;;;;41.40;15.90;;;15.80;99.90;;;;;;5051454;28;20290;-64
2022/10/31 09:38:57;;;;;;;30.27;12.83;;;15.90;99.90;;;;;;5050706;28;20217;-64
2022/10/31 09:41:33;;;;;;;38.23;16.67;;;16.00;99.90;;;;;;5051336;28;20640;-65
2022/10/31 09:44:07;;;;;;;29.90;15.60;;;16.10;99.90;;;;;;5050761;28;20205;-64
2022/10/31 09:46:48;;;;;;;30.30;14.57;;;16.10;99.90;;;;;;5051481;28;20205;-64
2022/10/31 09:49:31;;;;;;;28.90;14.20;;;16.00;99.90;;;;;;5051119;28;20260;-65
2022/10/31 09:52:03;;;;;;;33.80;14.47;;;16.20;99.90;;;;;;5050312;28;20229;-67
2022/10/31 09:54:36;;;;;;;29.87;14.93;;;16.00;99.90;;;;;;5050951;28;20206;-68
2022/10/31 09:57:03;;;;;;;28.80;14.57;;;16.10;99.90;;;;;;5051242;28;20206;-63
2022/10/31 09:59:34;;;;;;;29.73;14.33;;;16.10;99.90;;;;;;5051148;28;20209;-63
2022/10/31 10:02:05;;;;;;;27.97;13.60;;;16.30;99.90;;;;;;5050463;28;20226;-63
2022/10/31 10:04:41;;;;;;;36.10;18.13;;;16.30;99.90;;;;;;5051087;28;20213;-62
2022/10/31 10:07:16;;;;;;;28.80;14.73;;;16.30;99.90;;;;;;5050414;28;20218;-63
2022/10/31 10:09:43;;;;;;;29.17;14.10;;;16.50;99.90;;;;;;5051068;28;20267;-64
2022/10/31 10:12:17;;;;;;;28.40;14.63;;;16.60;99.90;;;;;;5050613;28;20275;-64
2022/10/31 10:15:00;;;;;;;28.80;13.27;;;16.70;99.90;;;;;;5051033;28;20668;-63
2022/10/31 10:17:39;;;;;;;30.23;14.23;;;16.60;99.90;;;;;;5050134;28;20636;-64
2022/10/31 10:20:21;;;;;;;29.00;14.27;;;16.50;99.90;;;;;;5050766;28;20209;-65
2022/10/31 10:22:55;;;;;;;29.90;14.10;;;16.40;99.90;;;;;;5050432;28;20560;-65
2022/10/31 10:25:24;;;;;;;28.57;14.17;;;16.50;99.90;;;;;;5051029;28;20236;-65
2022/10/31 10:28:01;;;;;;;28.37;13.60;;;16.60;99.90;;;;;;5050371;28;20275;-65
2022/10/31 10:30:35;;;;;;;23.77;13.47;;;16.60;99.90;;;;;;5050447;28;20637;-63
2022/10/31 10:33:09;;;;;;;30.63;13.77;;;16.70;99.90;;;;;;5051116;28;20201;-65
2022/10/31 10:35:39;;;;;;;29.30;13.37;;;16.80;99.90;;;;;;5050459;28;20206;-64
2022/10/31 10:38:14;;;;;;;27.73;13.17;;;17.00;99.90;;;;;;5050379;28;20672;-63
2022/10/31 10:40:41;;;;;;;31.47;12.97;;;17.10;99.90;;;;;;5050476;28;20572;-65
2022/10/31 10:43:22;;;;;;;22.70;13.00;;;17.20;99.90;;;;;;5050989;28;20217;-65
2022/10/31 10:48:52;;;;;;;28.07;11.53;;;17.20;99.90;;;;;;5050388;28;20794;-65
2022/10/31 10:51:23;;;;;;;19.77;11.00;;;17.40;99.90;;;;;;5050232;28;20253;-59
2022/10/31 10:54:13;;;;;;;26.23;13.17;;;17.50;99.90;;;;;;5054605;28;20239;-57
2022/10/31 10:56:49;;;;;;;23.20;11.77;;;17.40;99.90;;;;;;5052869;28;20202;-59
2022/10/31 10:59:19;;;;;;;25.13;11.43;;;17.50;99.90;;;;;;5046982;28;20213;-58
2022/10/31 11:01:48;;;;;;;25.00;11.70;;;17.50;99.90;;;;;;5054029;28;20232;-62
2022/10/31 11:04:27;;;;;;;23.53;12.77;;;17.50;99.90;;;;;;5054549;28;20271;-57
2022/10/31 11:07:01;;;;;;;24.57;10.90;;;17.60;99.90;;;;;;5053976;28;20676;-61
2022/10/31 11:09:27;;;;;;;25.37;10.93;;;17.60;99.90;;;;;;5053818;28;20271;-60
2022/10/31 11:11:56;;;;;;;19.03;11.03;;;17.50;99.90;;;;;;5054021;28;20233;-61
2022/10/31 11:14:23;;;;;;;22.47;11.60;;;17.40;99.80;;;;;;5053319;28;20641;-61
2022/10/31 11:16:54;;;;;;;20.83;11.23;;;17.40;99.90;;;;;;5054224;28;20252;-61
2022/10/31 11:19:25;;;;;;;22.93;11.53;;;17.40;99.90;;;;;;5053573;28;20201;-62
2022/10/31 11:21:51;;;;;;;24.40;10.83;;;17.60;99.90;;;;;;5053323;28;20236;-59
2022/10/31 11:24:20;;;;;;;23.53;10.63;;;17.60;99.90;;;;;;5053970;28;20214;-57
2022/10/31 11:26:48;;;;;;;17.97;10.50;;;17.70;99.90;;;;;;5053718;28;20201;-60
2022/10/31 11:29:18;;;;;;;24.97;11.33;;;17.60;99.90;;;;;;5053125;28;20236;-60
2022/10/31 11:31:46;;;;;;;22.33;11.20;;;17.50;99.90;;;;;;5053522;28;20316;-59
2022/10/31 11:34:18;;;;;;;20.73;10.23;;;17.50;99.90;;;;;;5053755;28;20276;-62
2022/10/31 11:36:47;;;;;;;18.50;10.43;;;17.70;99.90;;;;;;5053515;28;20194;-61
2022/10/31 11:39:18;;;;;;;20.47;10.77;;;17.90;99.90;;;;;;5054040;28;20197;-61
2022/10/31 11:41:46;;;;;;;16.63;10.10;;;17.90;95.20;;;;;;5053139;28;20228;-61
2022/10/31 11:44:16;;;;;;;24.90;10.60;;;17.90;97.90;;;;;;5052630;28;20202;-61
2022/10/31 11:46:46;;;;;;;27.83;11.63;;;18.10;99.90;;;;;;5053390;28;20210;-63
2022/10/31 11:49:18;;;;;;;17.03;10.47;;;18.00;99.00;;;;;;5053444;28;20222;-63
2022/10/31 11:51:50;;;;;;;19.30;10.80;;;18.10;94.40;;;;;;5052927;28;20337;-62
2022/10/31 11:54:22;;;;;;;16.90;8.90;;;18.20;99.90;;;;;;5053618;28;20691;-61
2022/10/31 11:56:49;;;;;;;19.13;8.53;;;18.30;66.60;;;;;;5053102;28;20206;-65
2022/10/31 11:59:24;;;;;;;19.73;8.60;;;18.30;84.70;;;;;;5052950;28;20244;-64
2022/10/31 12:01:52;;;;;;;16.97;8.80;;;18.40;82.80;;;;;;5052851;28;20229;-63
2022/10/31 12:04:23;;;;;;;22.70;9.27;;;18.40;46.00;;;;;;5053034;28;20251;-64
2022/10/31 12:06:55;;;;;;;18.83;9.50;;;18.50;77.90;;;;;;5052989;28;20224;-64
2022/10/31 12:09:27;;;;;;;17.93;8.67;;;18.50;62.10;;;;;;5052910;28;20226;-68
2022/10/31 12:12:06;;;;;;;19.03;8.60;;;18.50;77.90;;;;;;5052477;28;20225;-67
2022/10/31 12:14:42;;;;;;;21.10;8.60;;;18.60;82.50;;;;;;5052949;28;20212;-67
2022/10/31 12:17:16;;;;;;;17.50;7.67;;;18.70;94.10;;;;;;5052851;28;20205;-66
2022/10/31 12:19:47;;;;;;;17.57;7.97;;;18.70;62.10;;;;;;5052132;28;20220;-63
2022/10/31 12:22:22;;;;;;;18.03;8.07;;;18.70;58.20;;;;;;5052172;28;20661;-64
2022/10/31 12:25:03;;;;;;;14.67;7.50;;;18.60;47.60;;;;;;5052432;28;20667;-63
2022/10/31 12:27:47;;;;;;;17.93;7.63;;;18.70;59.60;;;;;;5052778;28;20201;-63
2022/10/31 12:30:19;;;;;;;16.43;7.83;;;18.80;54.90;;;;;;5052003;28;20789;-60
2022/10/31 12:33:16;;;;;;;16.77;8.43;;;18.90;33.30;;;;;;5050940;28;20214;-65
2022/10/31 12:35:58;;;;;;;16.00;7.80;;;19.00;35.30;;;;;;5045076;28;20232;-64
2022/10/31 12:38:45;;;;;;;12.77;6.80;;;19.20;25.00;;;;;;5052889;28;20232;-63
2022/10/31 12:41:29;;;;;;;15.30;7.23;;;19.30;1.00;;;;;;5052197;28;20287;-62
2022/10/31 12:44:04;;;;;;;14.93;7.10;;;19.40;5.80;;;;;;5052903;28;20578;-62
2022/10/31 12:46:54;;;;;;;16.47;6.70;;;19.30;1.00;;;;;;5052580;28;20209;-63